createdAt,value
2019-05-10T00:04:56.768Z,6.22
2019-05-10T00:10:08.069Z,5.83
2019-05-10T00:15:08.300Z,7.57
2019-05-10T00:20:09.463Z,7.60
2019-05-10T00:25:03.113Z,7.07
2019-05-10T00:30:05.329Z,6.91
2019-05-10T00:40:26.084Z,7.63
2019-05-10T00:45:27.308Z,8.78
2019-05-10T00:50:27.418Z,8.35
2019-05-10T00:55:19.040Z,8.08
2019-05-10T01:00:35.003Z,9.17
2019-05-10T01:05:22.356Z,8.59
2019-05-10T01:10:42.436Z,8.47
2019-05-10T01:15:46.593Z,9.27
2019-05-10T01:20:31.159Z,8.85
2019-05-10T01:25:51.444Z,9.26
2019-05-10T01:30:38.972Z,9.06
2019-05-10T01:35:47.568Z,9.44
2019-05-10T01:40:54.759Z,8.95
2019-05-10T01:46:15.978Z,8.83
2019-05-10T01:51:03.359Z,9.89
2019-05-10T01:56:10.625Z,10.52
2019-05-10T02:01:31.860Z,8.83
2019-05-10T02:06:20.269Z,10.14
2019-05-10T02:11:41.277Z,10.38
2019-05-10T02:16:42.602Z,10.61
2019-05-10T02:21:43.579Z,12.49
2019-05-10T02:26:31.052Z,11.35
2019-05-10T02:31:39.398Z,10.96
2019-05-10T02:41:54.652Z,10.54
2019-05-10T02:47:04.006Z,9.73
2019-05-10T02:52:12.153Z,10.31
2019-05-10T02:57:20.830Z,12.29
2019-05-10T03:02:28.187Z,10.35
2019-05-10T03:07:48.505Z,11.33
2019-05-10T03:12:36.856Z,11.14
2019-05-10T03:17:57.277Z,10.52
2019-05-10T03:22:45.290Z,11.36
2019-05-10T03:28:06.505Z,11.81
2019-05-10T03:32:54.648Z,12.06
2019-05-10T03:38:03.152Z,11.77
2019-05-10T03:43:10.336Z,11.21
2019-05-10T03:48:18.765Z,11.18
2019-05-10T03:53:40.001Z,10.33
2019-05-10T03:58:27.547Z,10.33
2019-05-10T04:03:34.879Z,8.99
2019-05-10T04:08:42.436Z,8.62
2019-05-10T04:14:02.426Z,8.54
2019-05-10T04:18:50.668Z,8.94
2019-05-10T04:24:11.677Z,8.26
2019-05-10T04:29:00.129Z,8.50
2019-05-10T04:34:07.295Z,9.04
2019-05-10T04:39:15.584Z,9.13
2019-05-10T04:44:36.608Z,9.47
2019-05-10T04:49:38.084Z,9.38
2019-05-10T04:54:25.418Z,9.31
2019-05-10T04:59:32.764Z,9.53
2019-05-10T05:04:53.993Z,9.33
2019-05-10T05:09:41.391Z,9.74
2019-05-10T05:15:03.590Z,8.69
2019-05-10T05:19:51.045Z,9.52
2019-05-10T05:30:06.628Z,7.68
2019-05-10T05:35:15.492Z,8.58
2019-05-10T05:40:34.433Z,7.98
2019-05-10T05:50:22.646Z,8.42
2019-05-10T05:55:31.992Z,8.13
2019-05-10T06:00:44.075Z,8.34
2019-05-10T06:05:57.857Z,7.70
2019-05-10T06:15:50.290Z,7.71
2019-05-10T06:21:11.591Z,8.86
2019-05-10T06:25:58.877Z,7.80
2019-05-10T06:31:07.465Z,8.67
2019-05-10T06:36:14.867Z,8.54
2019-05-10T06:51:42.911Z,9.08
2019-05-10T07:01:45.233Z,8.11
2019-05-10T07:06:41.499Z,7.76
2019-05-10T07:11:29.704Z,8.93
2019-05-10T07:16:37.891Z,7.31
2019-05-10T07:21:59.142Z,7.56
2019-05-10T07:27:02.069Z,7.44
2019-05-10T07:31:47.922Z,8.19
2019-05-10T07:42:00.255Z,8.91
2019-05-10T07:52:18.838Z,8.92
2019-05-10T08:02:12.883Z,12.30
2019-05-10T08:07:30.900Z,13.32
2019-05-10T08:12:35.211Z,11.86
2019-05-10T08:17:35.386Z,11.66
2019-05-10T08:22:18.930Z,11.28
2019-05-10T08:27:27.210Z,10.95
2019-05-10T08:32:35.128Z,10.95
2019-05-10T08:42:54.096Z,11.21
2019-05-10T08:53:02.355Z,11.07
2019-05-10T08:58:24.460Z,10.23
2019-05-10T09:03:09.283Z,10.62
2019-05-10T09:08:29.610Z,11.12
2019-05-10T09:13:28.678Z,11.57
2019-05-10T09:18:13.737Z,12.43
2019-05-10T09:23:22.776Z,12.26
2019-05-10T09:28:32.093Z,11.99
2019-05-10T09:33:43.394Z,11.00
2019-05-10T09:38:57.410Z,11.44
2019-05-10T09:49:06.145Z,12.16
2019-05-10T09:54:00.294Z,11.81
2019-05-10T09:58:48.223Z,11.42
2019-05-10T10:03:53.948Z,11.70
2019-05-10T10:09:17.180Z,11.39
2019-05-10T10:29:07.333Z,10.30
2019-05-10T10:34:14.325Z,10.22
2019-05-10T10:39:37.052Z,10.13
2019-05-10T10:44:22.091Z,9.53
2019-05-10T10:49:31.951Z,9.48
2019-05-10T10:54:49.822Z,9.38
2019-05-10T10:59:40.089Z,9.12
2019-05-10T11:04:51.762Z,9.50
2019-05-10T11:09:53.804Z,8.89
2019-05-10T11:14:40.956Z,9.89
2019-05-10T11:20:00.597Z,9.22
2019-05-10T11:29:51.679Z,8.12
2019-05-10T11:35:12.080Z,8.69
2019-05-10T11:39:56.873Z,7.56
2019-05-10T11:50:06.510Z,9.74
2019-05-10T11:55:13.396Z,7.59
2019-05-10T12:05:26.749Z,7.92
2019-05-10T12:10:33.430Z,10.13
2019-05-10T12:30:52.123Z,9.45
2019-05-10T12:36:04.210Z,7.02
2019-05-10T12:46:20.607Z,7.18
2019-05-10T12:56:07.421Z,3.79
2019-05-10T13:06:33.040Z,3.38
2019-05-10T13:11:25.576Z,3.12
2019-05-10T13:16:28.002Z,3.42
2019-05-10T13:21:53.676Z,3.11
2019-05-10T13:26:36.742Z,2.02
2019-05-10T13:31:44.440Z,2.10
2019-05-10T13:42:09.678Z,2.97
2019-05-10T13:46:55.906Z,2.93
2019-05-10T13:52:16.198Z,3.31
2019-05-10T14:02:04.391Z,3.62
2019-05-10T14:07:12.754Z,3.33
2019-05-10T14:12:34.136Z,3.02
2019-05-10T14:17:21.579Z,2.91
2019-05-10T14:22:41.828Z,2.56
2019-05-10T14:27:29.874Z,2.28
2019-05-10T14:32:36.560Z,2.38
2019-05-10T14:37:47.820Z,2.19
2019-05-10T14:42:52.619Z,2.12
2019-05-10T14:48:13.057Z,2.01
2019-05-10T14:53:20.076Z,2.00
2019-05-10T15:03:19.951Z,2.51
2019-05-10T15:08:07.309Z,2.28
2019-05-10T15:13:19.510Z,2.43
2019-05-10T15:18:23.125Z,2.15
2019-05-10T15:23:43.497Z,2.36
2019-05-10T15:28:43.694Z,2.46
2019-05-10T15:33:45.157Z,2.24
2019-05-10T15:38:50.549Z,2.34
2019-05-10T15:43:48.882Z,2.69
2019-05-10T15:53:37.107Z,2.16
2019-05-10T15:58:45.589Z,2.64
2019-05-10T16:03:53.071Z,2.46
2019-05-10T16:09:17.368Z,2.92
2019-05-10T16:14:13.537Z,3.50
2019-05-10T16:19:01.941Z,3.77
2019-05-10T16:29:23.250Z,3.46
2019-05-10T16:34:26.596Z,4.24
2019-05-10T16:39:23.764Z,3.77
2019-05-10T16:44:24.904Z,4.18
2019-05-10T16:49:15.576Z,4.04
2019-05-10T16:54:32.382Z,4.14
2019-05-10T16:59:35.323Z,4.90
2019-05-10T17:04:21.459Z,5.37
2019-05-10T17:09:43.600Z,4.92
2019-05-10T17:14:44.631Z,4.04
2019-05-10T17:19:46.046Z,4.57
2019-05-10T17:24:33.396Z,4.32
2019-05-10T17:29:53.704Z,4.02
2019-05-10T17:34:53.869Z,4.56
2019-05-10T17:39:44.810Z,5.11
2019-05-10T17:45:01.788Z,5.22
2019-05-10T17:49:57.469Z,3.69
2019-05-10T17:54:44.658Z,4.71
2019-05-10T17:59:54.563Z,4.93
2019-05-10T18:20:12.269Z,3.35
2019-05-10T18:30:33.257Z,4.34
2019-05-10T18:35:34.375Z,3.84
2019-05-10T18:50:24.584Z,3.46
2019-05-10T19:00:40.178Z,3.64
2019-05-10T19:05:45.105Z,3.29
2019-05-10T19:16:06.208Z,3.78
2019-05-10T19:21:07.216Z,3.63
2019-05-10T19:26:07.416Z,3.87
2019-05-10T19:31:08.011Z,4.41
2019-05-10T19:36:13.026Z,5.98
2019-05-10T19:41:09.531Z,5.57
2019-05-10T19:46:09.678Z,4.04
2019-05-10T19:51:11.572Z,4.79
2019-05-10T19:56:11.085Z,4.96
2019-05-10T20:01:12.312Z,5.65
2019-05-10T20:06:13.522Z,5.51
2019-05-10T20:11:00.998Z,5.63
2019-05-10T20:16:21.174Z,6.18
2019-05-10T20:21:09.594Z,7.61
2019-05-10T20:26:29.900Z,10.02
2019-05-10T20:31:17.390Z,10.46
2019-05-10T20:36:24.648Z,10.54
2019-05-10T20:41:44.935Z,13.43
2019-05-10T20:46:33.229Z,13.58
2019-05-10T20:51:53.642Z,14.26
2019-05-10T20:56:40.958Z,13.56
2019-05-10T21:02:01.060Z,14.61
2019-05-10T21:06:49.381Z,14.79
2019-05-10T21:12:10.031Z,16.53
2019-05-10T21:17:11.434Z,17.46
2019-05-10T21:21:58.897Z,16.81
2019-05-10T21:27:19.216Z,16.28
2019-05-10T21:32:19.442Z,18.23
2019-05-10T21:37:07.823Z,18.41
2019-05-10T21:42:15.318Z,18.57
2019-05-10T21:47:22.683Z,22.04
2019-05-10T21:52:42.865Z,20.69
2019-05-10T21:57:44.114Z,23.87
2019-05-10T22:02:31.745Z,22.41
2019-05-10T22:07:52.858Z,22.75
2019-05-10T22:12:53.907Z,23.96
2019-05-10T22:17:54.167Z,26.03
2019-05-10T22:22:41.726Z,25.08
2019-05-10T22:28:01.755Z,27.62
2019-05-10T22:33:02.936Z,28.62
2019-05-10T22:38:03.196Z,27.77
2019-05-10T22:43:03.417Z,30.87
2019-05-10T22:53:05.614Z,32.55
2019-05-10T22:57:54.228Z,36.67
2019-05-10T23:03:14.715Z,33.31
2019-05-10T23:08:01.956Z,36.85
2019-05-10T23:13:09.300Z,39.57
2019-05-10T23:18:30.472Z,35.32
2019-05-10T23:23:23.475Z,37.89
2019-05-10T23:28:35.723Z,39.30
2019-05-10T23:33:37.275Z,39.02
2019-05-10T23:38:37.481Z,37.93
2019-05-10T23:43:24.992Z,37.88
2019-05-10T23:48:45.023Z,35.67
2019-05-10T23:58:49.966Z,38.79
